Potash Point, Vermont
Current Conditions -  °F | °C
As of 1:35 AM on Thursday 27 Nov 2014 (Local Time) from K6B0 Reporting Station
Light Snow Light Snow  
Wind Chill: -5°   Ceiling: 700
Heat Index: -2°   Visibility: 2mi
Dew Point: -2°   Wind: 6mph
Humidity: 100%   Direction: 360°N
Pressure: 29.9"   Gusts: NA
Location:  44.0804°N, 73.3324°W
Report Text: K6B0 270635Z AUTO 36005KT 2SM -SN OVC007 M02/M02 A2990 RMK AO2 T10181018
Loading
Personal Weather Stations






























Interactive Weather Map New forecast layout! Learn more

10-Day Weather Forecast

Advertisements
Track Severe Weather on mobile